Meteo Giornale » Osservazioni meteo Stati Uniti (USA) » Deer Park
ore: 17:53 - Osservazioni Meteo Deer Park
Lat. 47° 58' N Lon. 117° 25' W Alt. 672 metri s.l.m.
27 °C
Sereno
Temp. 24 Ore
3 °C
27 °C
Nord
0 Km/h
Dew point 3 °C
Umidità 21 %
Visibilità 10 Km
Il sole sorge alle ore 06:06
Il sole tramonta alle ore 19:32
| Data e Ora | Cielo e Fenomeni | T °C | DP °C | Um. % | Pres. hPa | Vis. km | Vento km/h | |
|---|---|---|---|---|---|---|---|---|
| Oggi h: 17:53 | Sereno | 27 | 3 | 21 | 1011 | 10 | N 0 | |
| Oggi h: 16:53 | Sereno | 27 | 3 | 21 | 1012 | 10 | SO 7.4 | |
| Oggi h: 15:53 | Sereno | 27 | 4 | 22 | 1012 | 10 | S/SE 7.4 | |
| Oggi h: 14:53 | Sereno | 26 | 4 | 24 | 1013 | 10 | N 5.5 | |
| Oggi h: 13:53 | Sereno | 26 | 4 | 24 | 1014 | 10 | O/NO 7.4 | |
| Oggi h: 12:53 | Sereno | 24 | 4 | 27 | 1015 | 10 | O/NO 9.3 | |
| Oggi h: 11:53 | Sereno | 23 | 4 | 28 | 1016 | 10 | S/SO 11.1 | |
| Oggi h: 10:53 | Sereno | 21 | 3 | 30 | 1016 | 10 | N 0 | |
| Oggi h: 09:53 | Sereno | 19 | 4 | 37 | 1017 | 10 | E/NE 9.3 | |
| Oggi h: 08:53 | Sereno | 17 | 4 | 41 | 1017 | 10 | N 9.3 | |
| Oggi h: 07:53 | Sereno | 13 | 4 | 54 | 1017 | 10 | N 0 | |
| Oggi h: 06:53 | Sereno | 5 | 1 | 75 | 1017 | 10 | N 0 | |
| Oggi h: 05:53 | Sereno | 3 | 0 | 80 | 1017 | 10 | N 5.5 | |
| Oggi h: 04:53 | Sereno | 3 | -1 | 74 | 1017 | 10 | N 0 | |
| Oggi h: 03:53 | Sereno | 4 | 1 | 80 | 1016 | 10 | N 0 | |
| Oggi h: 02:53 | Sereno | 6 | 0 | 65 | 1016 | 10 | N 0 | |
| Oggi h: 01:53 | Sereno | 6 | 1 | 70 | 1016 | 10 | N 0 | |
| Oggi h: 00:53 | Sereno | 6 | 1 | 70 | 1016 | 10 | N 5.5 | |
| Ieri h: 23:53 | Sereno | 7 | 1 | 65 | 1016 | 10 | N 0 | |
| Ieri h: 22:53 | Sereno | 9 | 1 | 57 | 1016 | 10 | N 0 | |
| Ieri h: 21:53 | Sereno | 11 | 2 | 53 | 1016 | 10 | N 0 | |
| Ieri h: 20:53 | Sereno | 11 | 1 | 50 | 1016 | 10 | S 7.4 | |
| Ieri h: 19:53 | Sereno | 18 | 2 | 34 | 1016 | 10 | SO 11.1 | |
| Ieri h: 18:53 | Sereno | 20 | 2 | 30 | 1016 | 10 | SO 13 | |



